Portada
METAR-TAF:

METAR-TAF

Aeroports :

Basseterre, Saint Kitts i Nevis

latitud: 17-18N, longitud: 062-41W, altitud: 48 m

Observació

L'informe es va fer fa 10 hores i 7 minuts, a les 21:00 UTC
Vent 12 kt del Est
Temperatura 26°C
Humitat 89%
Pressió 1013 hPa
Visibilitat: 4000 m
Escasses núvols a una alçada de 1000 ft
Núvols disperses a una alçada de 1600 ft
xàfecs de pluja

METAR: TKPK 262100Z 10012KT 9999 4000S -SHRA FEW010 SCT016 26/24 Q1013

Hora: 03:07 (07:07 UTC)

Pronòstic

L'informe es va fer fa 1 hora i 47 minuts, a les 05:20 UTC
Pronòstic vàlid del 27 a les 06 UTC al 28 a les 06 UTC
Vent 13 kt del Est/Nord-Est
Visibilitat: 10 km
Núvols disperses a una alçada de 1700 ft
Núvols disperses a una alçada de 2200 ft
xàfecs en les proximitats

TAF: TKPK 270520Z 2706/2806 07013KT P6SM VCSH SCT017 SCT022 AMD NOT SKED TIL 271100

Observacions i pronòstics meteorològics de més de 4000 aeroports (METAR i TAF).

Les estacions disponibles són els punts grocs i vermells al mapa.

Posi el ratolí al punt desitjat per veure el nom de l'estació.

Feu clic per veure les observacions i els pronòstics meteorològics.

Per canviar el mapa: feu clic els botons verds amb una creu de color negre per apropar; al botó verd amb un guió per allunyar la imatge; o en les fletxes verdes per a mapes adjacents.


METAR-TAF: